FWKI/LLW METAR and TAF weather

Enter ICAO airport designator
Station Type Date Time Source
FWKI METAR 2019/10/21 15:00 UTC NOAA

FWKI 211500Z 08009KT 9999 FEW045CB 29/10 Q1014 NOSIG


Station Type Date Time Source
FWKI Decoded METAR 2019/10/21 15:00 UTC NOAA

Lilongwe International Airport, Malawi (FWKI) 13-47S 033-46E 1229M
Oct 21, 2019 - 11:00 AM EDT / 2019.10.21 1500 UTC
Wind: from the E (080 degrees) at 10 MPH (9 KT):0
Visibility: greater than 7 mile(s):0
Sky conditions: mostly clear
Weather: Cumulonimbus clouds observed
Temperature: 84 F (29 C)
Dew Point: 50 F (10 C)
Relative Humidity: 30%
Pressure (altimeter): 29.94 in. Hg (1014 hPa)
ob: FWKI 211500Z 08009KT 9999 FEW045CB 29/10 Q1014 NOSIG
cycle: 15

Station Type Date Time Source
FWKI TAF 2019/10/21 18:42 UTC NOAA

TAF TAF FWKI 211530Z 2118/2224 09007KT CAVOK
BECMG 2206/2208 10010KT 9999 FEW030
BECMG 2208/2210 SCT035
FM221400 09007KT CAVOK

Example: see airport list